sensor_id;sensor_type;location;lat;lon;timestamp;pressure;altitude;pressure_sealevel;temperature;humidity
72896;BME280;61036;53.224;6.554;2024-02-21T00:01:21;99629.72;;;9.89;100.00
72896;BME280;61036;53.224;6.554;2024-02-21T00:03:47;99630.28;;;9.82;100.00
72896;BME280;61036;53.224;6.554;2024-02-21T00:06:13;99607.47;;;9.77;100.00
72896;BME280;61036;53.224;6.554;2024-02-21T00:08:38;99569.31;;;9.62;100.00
72896;BME280;61036;53.224;6.554;2024-02-21T00:11:04;99510.69;;;9.75;100.00
72896;BME280;61036;53.224;6.554;2024-02-21T00:13:29;99516.06;;;9.56;100.00
72896;BME280;61036;53.224;6.554;2024-02-21T00:15:55;99478.97;;;9.50;100.00
72896;BME280;61036;53.224;6.554;2024-02-21T00:18:21;99448.50;;;9.59;100.00
72896;BME280;61036;53.224;6.554;2024-02-21T00:20:46;99426.72;;;9.33;100.00
72896;BME280;61036;53.224;6.554;2024-02-21T00:23:12;99388.75;;;9.26;100.00
72896;BME280;61036;53.224;6.554;2024-02-21T00:25:37;99344.16;;;9.43;100.00
72896;BME280;61036;53.224;6.554;2024-02-21T00:28:03;99338.66;;;9.25;100.00
72896;BME280;61036;53.224;6.554;2024-02-21T00:30:28;99318.09;;;9.34;100.00
72896;BME280;61036;53.224;6.554;2024-02-21T00:32:54;99319.09;;;9.23;100.00
72896;BME280;61036;53.224;6.554;2024-02-21T00:35:20;99288.50;;;9.34;100.00
72896;BME280;61036;53.224;6.554;2024-02-21T00:37:45;99269.56;;;9.26;100.00
72896;BME280;61036;53.224;6.554;2024-02-21T00:40:11;99252.91;;;9.12;100.00
72896;BME280;61036;53.224;6.554;2024-02-21T00:42:36;99217.03;;;9.31;100.00
72896;BME280;61036;53.224;6.554;2024-02-21T00:45:02;99223.84;;;9.26;100.00
72896;BME280;61036;53.224;6.554;2024-02-21T00:47:28;99209.69;;;9.24;100.00
72896;BME280;61036;53.224;6.554;2024-02-21T00:49:54;99203.91;;;9.19;100.00
72896;BME280;61036;53.224;6.554;2024-02-21T00:52:20;99190.72;;;9.25;100.00
72896;BME280;61036;53.224;6.554;2024-02-21T00:54:45;99177.72;;;9.21;100.00
72896;BME280;61036;53.224;6.554;2024-02-21T00:57:11;99181.09;;;9.23;100.00
72896;BME280;61036;53.224;6.554;2024-02-21T00:59:37;99179.66;;;9.28;100.00
72896;BME280;61036;53.224;6.554;2024-02-21T01:02:03;99190.88;;;9.14;100.00
72896;BME280;61036;53.224;6.554;2024-02-21T01:04:28;99192.59;;;9.15;100.00
72896;BME280;61036;53.224;6.554;2024-02-21T01:06:54;99211.59;;;9.04;100.00
72896;BME280;61036;53.224;6.554;2024-02-21T01:09:19;99177.81;;;9.29;100.00
72896;BME280;61036;53.224;6.554;2024-02-21T01:11:44;99188.16;;;9.33;100.00
72896;BME280;61036;53.224;6.554;2024-02-21T01:14:10;99219.88;;;9.20;100.00
72896;BME280;61036;53.224;6.554;2024-02-21T01:16:36;99208.41;;;9.28;100.00
72896;BME280;61036;53.224;6.554;2024-02-21T01:19:01;99219.47;;;9.25;100.00
72896;BME280;61036;53.224;6.554;2024-02-21T01:21:27;99226.81;;;9.23;100.00
72896;BME280;61036;53.224;6.554;2024-02-21T01:23:53;99231.09;;;9.15;100.00
72896;BME280;61036;53.224;6.554;2024-02-21T01:26:18;99217.06;;;9.22;100.00
72896;BME280;61036;53.224;6.554;2024-02-21T01:28:44;99205.16;;;9.24;100.00
72896;BME280;61036;53.224;6.554;2024-02-21T01:31:09;99182.53;;;9.17;100.00
72896;BME280;61036;53.224;6.554;2024-02-21T01:33:35;99157.34;;;9.08;100.00
72896;BME280;61036;53.224;6.554;2024-02-21T01:36:02;99107.03;;;9.28;100.00
72896;BME280;61036;53.224;6.554;2024-02-21T01:38:28;99086.41;;;9.19;100.00
72896;BME280;61036;53.224;6.554;2024-02-21T01:40:54;99070.22;;;9.01;100.00
72896;BME280;61036;53.224;6.554;2024-02-21T01:43:20;99032.88;;;8.98;100.00
72896;BME280;61036;53.224;6.554;2024-02-21T01:45:51;98962.88;;;9.18;100.00
72896;BME280;61036;53.224;6.554;2024-02-21T01:48:18;98964.28;;;8.94;100.00
72896;BME280;61036;53.224;6.554;2024-02-21T01:50:47;98900.75;;;9.11;100.00
72896;BME280;61036;53.224;6.554;2024-02-21T01:53:17;98889.38;;;8.99;100.00
72896;BME280;61036;53.224;6.554;2024-02-21T01:55:48;98859.16;;;8.97;100.00
72896;BME280;61036;53.224;6.554;2024-02-21T01:58:14;98828.66;;;8.88;100.00
72896;BME280;61036;53.224;6.554;2024-02-21T02:00:43;98778.84;;;9.02;100.00
72896;BME280;61036;53.224;6.554;2024-02-21T02:03:11;98763.34;;;8.96;100.00
72896;BME280;61036;53.224;6.554;2024-02-21T02:05:49;98744.19;;;8.91;100.00
72896;BME280;61036;53.224;6.554;2024-02-21T02:08:15;98707.81;;;9.05;100.00
72896;BME280;61036;53.224;6.554;2024-02-21T02:10:41;98714.44;;;8.92;100.00
72896;BME280;61036;53.224;6.554;2024-02-21T02:13:07;98684.22;;;8.99;100.00
72896;BME280;61036;53.224;6.554;2024-02-21T02:15:43;98656.38;;;9.00;100.00
72896;BME280;61036;53.224;6.554;2024-02-21T02:18:10;98618.25;;;9.04;100.00
72896;BME280;61036;53.224;6.554;2024-02-21T02:20:36;98598.94;;;9.09;100.00
72896;BME280;61036;53.224;6.554;2024-02-21T02:23:08;98593.97;;;9.22;100.00
72896;BME280;61036;53.224;6.554;2024-02-21T02:25:35;98625.66;;;9.10;100.00
72896;BME280;61036;53.224;6.554;2024-02-21T02:28:01;98650.69;;;9.03;100.00
72896;BME280;61036;53.224;6.554;2024-02-21T02:30:26;98658.44;;;9.06;100.00
72896;BME280;61036;53.224;6.554;2024-02-21T02:32:52;98663.47;;;9.09;100.00
72896;BME280;61036;53.224;6.554;2024-02-21T02:35:17;98659.09;;;9.08;100.00
72896;BME280;61036;53.224;6.554;2024-02-21T02:37:50;98619.75;;;9.33;100.00
72896;BME280;61036;53.224;6.554;2024-02-21T02:40:16;98641.91;;;9.27;100.00
72896;BME280;61036;53.224;6.554;2024-02-21T02:42:42;98681.50;;;9.16;100.00
72896;BME280;61036;53.224;6.554;2024-02-21T02:45:08;98695.56;;;9.10;100.00
72896;BME280;61036;53.224;6.554;2024-02-21T02:47:33;98703.50;;;9.12;100.00
72896;BME280;61036;53.224;6.554;2024-02-21T02:50:00;98703.91;;;9.25;100.00
72896;BME280;61036;53.224;6.554;2024-02-21T02:52:25;98717.84;;;9.21;100.00
72896;BME280;61036;53.224;6.554;2024-02-21T02:54:51;98715.69;;;9.32;100.00
72896;BME280;61036;53.224;6.554;2024-02-21T02:57:18;98761.78;;;9.11;100.00
72896;BME280;61036;53.224;6.554;2024-02-21T02:59:48;98729.00;;;9.34;100.00
72896;BME280;61036;53.224;6.554;2024-02-21T03:02:14;98764.44;;;9.03;100.00
72896;BME280;61036;53.224;6.554;2024-02-21T03:04:39;98766.41;;;9.01;100.00
72896;BME280;61036;53.224;6.554;2024-02-21T03:07:06;98758.34;;;9.01;100.00
72896;BME280;61036;53.224;6.554;2024-02-21T03:09:31;98754.50;;;9.04;100.00
72896;BME280;61036;53.224;6.554;2024-02-21T03:11:57;98747.81;;;9.08;100.00
72896;BME280;61036;53.224;6.554;2024-02-21T03:14:28;98744.34;;;9.15;100.00
72896;BME280;61036;53.224;6.554;2024-02-21T03:16:54;98757.28;;;9.12;100.00
72896;BME280;61036;53.224;6.554;2024-02-21T03:19:19;98761.06;;;9.27;100.00
72896;BME280;61036;53.224;6.554;2024-02-21T03:21:45;98781.38;;;9.22;100.00
72896;BME280;61036;53.224;6.554;2024-02-21T03:24:10;98804.88;;;9.20;100.00
72896;BME280;61036;53.224;6.554;2024-02-21T03:26:35;98834.63;;;9.00;100.00
72896;BME280;61036;53.224;6.554;2024-02-21T03:29:01;98830.56;;;8.96;100.00
72896;BME280;61036;53.224;6.554;2024-02-21T03:31:26;98816.66;;;9.01;100.00
72896;BME280;61036;53.224;6.554;2024-02-21T03:33:52;98811.56;;;9.15;100.00
72896;BME280;61036;53.224;6.554;2024-02-21T03:36:18;98817.16;;;9.22;100.00
72896;BME280;61036;53.224;6.554;2024-02-21T03:38:43;98838.00;;;9.20;100.00
72896;BME280;61036;53.224;6.554;2024-02-21T03:41:10;98853.13;;;9.21;100.00
72896;BME280;61036;53.224;6.554;2024-02-21T03:43:37;98852.00;;;9.24;100.00
72896;BME280;61036;53.224;6.554;2024-02-21T03:46:03;98851.38;;;9.30;100.00
72896;BME280;61036;53.224;6.554;2024-02-21T03:48:28;98879.41;;;9.27;100.00
72896;BME280;61036;53.224;6.554;2024-02-21T03:50:54;98907.47;;;9.07;100.00
72896;BME280;61036;53.224;6.554;2024-02-21T03:53:20;98910.75;;;9.19;100.00
72896;BME280;61036;53.224;6.554;2024-02-21T03:55:45;98910.69;;;9.28;100.00
72896;BME280;61036;53.224;6.554;2024-02-21T03:58:10;98918.34;;;9.23;100.00
72896;BME280;61036;53.224;6.554;2024-02-21T04:00:36;98909.38;;;9.14;100.00
72896;BME280;61036;53.224;6.554;2024-02-21T04:03:02;98899.91;;;9.10;100.00
72896;BME280;61036;53.224;6.554;2024-02-21T04:05:28;98896.53;;;9.08;100.00
72896;BME280;61036;53.224;6.554;2024-02-21T04:07:53;98884.09;;;9.07;100.00
72896;BME280;61036;53.224;6.554;2024-02-21T04:10:19;98873.25;;;8.99;100.00
72896;BME280;61036;53.224;6.554;2024-02-21T04:12:44;98860.50;;;9.01;100.00
72896;BME280;61036;53.224;6.554;2024-02-21T04:15:10;98843.75;;;9.07;100.00
72896;BME280;61036;53.224;6.554;2024-02-21T04:17:36;98826.69;;;9.16;100.00
72896;BME280;61036;53.224;6.554;2024-02-21T04:20:03;98829.78;;;9.04;100.00
72896;BME280;61036;53.224;6.554;2024-02-21T04:22:31;98823.03;;;9.18;100.00
72896;BME280;61036;53.224;6.554;2024-02-21T04:24:59;98826.91;;;9.23;100.00
72896;BME280;61036;53.224;6.554;2024-02-21T04:27:25;98833.31;;;9.22;100.00
72896;BME280;61036;53.224;6.554;2024-02-21T04:29:50;98844.00;;;9.14;100.00
72896;BME280;61036;53.224;6.554;2024-02-21T04:32:16;98851.44;;;9.20;100.00
72896;BME280;61036;53.224;6.554;2024-02-21T04:34:41;98858.97;;;9.16;100.00
72896;BME280;61036;53.224;6.554;2024-02-21T04:37:07;98862.19;;;9.20;100.00
72896;BME280;61036;53.224;6.554;2024-02-21T04:39:32;98864.75;;;9.22;100.00
72896;BME280;61036;53.224;6.554;2024-02-21T04:41:58;98889.66;;;9.24;100.00
72896;BME280;61036;53.224;6.554;2024-02-21T04:44:23;98896.41;;;9.28;100.00
72896;BME280;61036;53.224;6.554;2024-02-21T04:46:49;98905.00;;;9.31;100.00
72896;BME280;61036;53.224;6.554;2024-02-21T04:49:14;98910.16;;;9.25;100.00
72896;BME280;61036;53.224;6.554;2024-02-21T04:51:40;98906.97;;;9.29;100.00
72896;BME280;61036;53.224;6.554;2024-02-21T04:54:06;98906.31;;;9.27;100.00
72896;BME280;61036;53.224;6.554;2024-02-21T04:56:31;98914.69;;;9.24;100.00
72896;BME280;61036;53.224;6.554;2024-02-21T04:58:57;98904.59;;;9.26;100.00
72896;BME280;61036;53.224;6.554;2024-02-21T05:01:22;98926.97;;;9.09;100.00
72896;BME280;61036;53.224;6.554;2024-02-21T05:03:48;98897.00;;;9.22;100.00
72896;BME280;61036;53.224;6.554;2024-02-21T05:06:13;98911.59;;;9.19;100.00
72896;BME280;61036;53.224;6.554;2024-02-21T05:08:40;98910.84;;;9.27;100.00
72896;BME280;61036;53.224;6.554;2024-02-21T05:11:05;98914.69;;;9.24;100.00
72896;BME280;61036;53.224;6.554;2024-02-21T05:13:31;98905.69;;;9.15;100.00
72896;BME280;61036;53.224;6.554;2024-02-21T05:15:56;98913.22;;;9.12;100.00
72896;BME280;61036;53.224;6.554;2024-02-21T05:18:22;98894.25;;;9.13;100.00
72896;BME280;61036;53.224;6.554;2024-02-21T05:20:47;98875.63;;;9.20;100.00
72896;BME280;61036;53.224;6.554;2024-02-21T05:23:13;98887.31;;;9.11;100.00
72896;BME280;61036;53.224;6.554;2024-02-21T05:25:38;98869.41;;;9.02;100.00
72896;BME280;61036;53.224;6.554;2024-02-21T05:28:04;98854.59;;;8.98;100.00
72896;BME280;61036;53.224;6.554;2024-02-21T05:30:31;98839.75;;;9.11;100.00
72896;BME280;61036;53.224;6.554;2024-02-21T05:32:57;98821.00;;;9.20;100.00
72896;BME280;61036;53.224;6.554;2024-02-21T05:35:29;98823.31;;;9.14;100.00
72896;BME280;61036;53.224;6.554;2024-02-21T05:37:54;98819.75;;;9.06;100.00
72896;BME280;61036;53.224;6.554;2024-02-21T05:40:20;98811.66;;;9.24;100.00
72896;BME280;61036;53.224;6.554;2024-02-21T05:42:45;98823.88;;;9.18;100.00
72896;BME280;61036;53.224;6.554;2024-02-21T05:45:11;98821.53;;;9.23;100.00
72896;BME280;61036;53.224;6.554;2024-02-21T05:47:36;98832.25;;;9.15;100.00
72896;BME280;61036;53.224;6.554;2024-02-21T05:50:02;98826.56;;;9.18;100.00
72896;BME280;61036;53.224;6.554;2024-02-21T05:52:27;98826.00;;;9.14;100.00
72896;BME280;61036;53.224;6.554;2024-02-21T05:54:53;98831.69;;;9.11;100.00
72896;BME280;61036;53.224;6.554;2024-02-21T05:57:18;98809.81;;;9.24;100.00
72896;BME280;61036;53.224;6.554;2024-02-21T05:59:44;98825.97;;;9.06;100.00
72896;BME280;61036;53.224;6.554;2024-02-21T06:02:09;98807.75;;;9.18;100.00
72896;BME280;61036;53.224;6.554;2024-02-21T06:04:35;98809.88;;;9.14;100.00
72896;BME280;61036;53.224;6.554;2024-02-21T06:07:01;98835.56;;;8.91;100.00
72896;BME280;61036;53.224;6.554;2024-02-21T06:09:27;98810.91;;;8.96;100.00
72896;BME280;61036;53.224;6.554;2024-02-21T06:11:53;98791.91;;;9.15;100.00
72896;BME280;61036;53.224;6.554;2024-02-21T06:14:19;98790.59;;;9.19;100.00
72896;BME280;61036;53.224;6.554;2024-02-21T06:16:45;98797.34;;;9.05;100.00
72896;BME280;61036;53.224;6.554;2024-02-21T06:19:10;98790.81;;;9.26;100.00
72896;BME280;61036;53.224;6.554;2024-02-21T06:21:36;98810.75;;;9.15;100.00
72896;BME280;61036;53.224;6.554;2024-02-21T06:24:02;98812.88;;;9.11;100.00
72896;BME280;61036;53.224;6.554;2024-02-21T06:26:28;98814.50;;;9.04;100.00
72896;BME280;61036;53.224;6.554;2024-02-21T06:28:54;98806.91;;;9.00;100.00
72896;BME280;61036;53.224;6.554;2024-02-21T06:31:19;98813.22;;;8.90;100.00
72896;BME280;61036;53.224;6.554;2024-02-21T06:33:45;98791.94;;;8.97;100.00
72896;BME280;61036;53.224;6.554;2024-02-21T06:36:10;98795.84;;;9.03;100.00
72896;BME280;61036;53.224;6.554;2024-02-21T06:38:35;98791.66;;;9.08;100.00
72896;BME280;61036;53.224;6.554;2024-02-21T06:41:01;98784.38;;;9.19;100.00
72896;BME280;61036;53.224;6.554;2024-02-21T06:43:28;98816.03;;;9.07;100.00
72896;BME280;61036;53.224;6.554;2024-02-21T06:45:53;98810.44;;;9.18;100.00
72896;BME280;61036;53.224;6.554;2024-02-21T06:48:20;98819.13;;;9.12;100.00
72896;BME280;61036;53.224;6.554;2024-02-21T06:50:46;98815.09;;;9.16;100.00
72896;BME280;61036;53.224;6.554;2024-02-21T06:53:14;98819.16;;;9.20;100.00
72896;BME280;61036;53.224;6.554;2024-02-21T06:55:40;98829.31;;;9.08;100.00
72896;BME280;61036;53.224;6.554;2024-02-21T06:58:05;98826.72;;;8.99;100.00
72896;BME280;61036;53.224;6.554;2024-02-21T07:00:33;98807.75;;;9.00;100.00
72896;BME280;61036;53.224;6.554;2024-02-21T07:02:59;98803.53;;;8.98;100.00
72896;BME280;61036;53.224;6.554;2024-02-21T07:05:24;98783.16;;;9.13;100.00
72896;BME280;61036;53.224;6.554;2024-02-21T07:07:50;98773.34;;;9.04;100.00
72896;BME280;61036;53.224;6.554;2024-02-21T07:10:15;98781.63;;;8.92;100.00
72896;BME280;61036;53.224;6.554;2024-02-21T07:12:41;98765.19;;;8.96;100.00
72896;BME280;61036;53.224;6.554;2024-02-21T07:15:09;98724.31;;;9.10;100.00
72896;BME280;61036;53.224;6.554;2024-02-21T07:17:35;98736.16;;;8.99;100.00
72896;BME280;61036;53.224;6.554;2024-02-21T07:20:01;98712.84;;;9.08;100.00
72896;BME280;61036;53.224;6.554;2024-02-21T07:22:26;98719.38;;;9.05;100.00
72896;BME280;61036;53.224;6.554;2024-02-21T07:24:52;98699.22;;;9.01;100.00
72896;BME280;61036;53.224;6.554;2024-02-21T07:27:17;98691.56;;;8.88;100.00
72896;BME280;61036;53.224;6.554;2024-02-21T07:29:43;98661.16;;;8.88;100.00
72896;BME280;61036;53.224;6.554;2024-02-21T07:32:13;98632.75;;;8.85;100.00
72896;BME280;61036;53.224;6.554;2024-02-21T07:34:38;98601.34;;;8.86;100.00
72896;BME280;61036;53.224;6.554;2024-02-21T07:37:04;98558.72;;;8.99;100.00
72896;BME280;61036;53.224;6.554;2024-02-21T07:39:29;98548.78;;;8.91;100.00
72896;BME280;61036;53.224;6.554;2024-02-21T07:41:55;98539.59;;;9.02;100.00
72896;BME280;61036;53.224;6.554;2024-02-21T07:44:20;98527.16;;;9.01;100.00
72896;BME280;61036;53.224;6.554;2024-02-21T07:46:46;98508.53;;;9.08;100.00
72896;BME280;61036;53.224;6.554;2024-02-21T07:49:11;98496.13;;;9.15;100.00
72896;BME280;61036;53.224;6.554;2024-02-21T07:51:37;98499.47;;;9.09;100.00
72896;BME280;61036;53.224;6.554;2024-02-21T07:54:03;98514.56;;;9.02;100.00
72896;BME280;61036;53.224;6.554;2024-02-21T07:56:29;98506.16;;;9.05;100.00
72896;BME280;61036;53.224;6.554;2024-02-21T07:58:55;98504.63;;;9.02;100.00
72896;BME280;61036;53.224;6.554;2024-02-21T08:01:21;98496.59;;;9.10;100.00
72896;BME280;61036;53.224;6.554;2024-02-21T08:03:46;98505.31;;;9.04;100.00
72896;BME280;61036;53.224;6.554;2024-02-21T08:06:12;98529.47;;;8.96;100.00
72896;BME280;61036;53.224;6.554;2024-02-21T08:08:38;98526.16;;;9.02;100.00
72896;BME280;61036;53.224;6.554;2024-02-21T08:11:04;98521.81;;;9.09;100.00
72896;BME280;61036;53.224;6.554;2024-02-21T08:13:30;98541.16;;;9.13;100.00
72896;BME280;61036;53.224;6.554;2024-02-21T08:15:56;98552.22;;;9.10;100.00
72896;BME280;61036;53.224;6.554;2024-02-21T08:18:22;98545.59;;;9.30;100.00
72896;BME280;61036;53.224;6.554;2024-02-21T08:20:48;98592.72;;;9.08;100.00
72896;BME280;61036;53.224;6.554;2024-02-21T08:23:18;98610.75;;;9.16;100.00
72896;BME280;61036;53.224;6.554;2024-02-21T08:25:44;98649.47;;;8.97;100.00
72896;BME280;61036;53.224;6.554;2024-02-21T08:28:09;98657.22;;;9.08;100.00
72896;BME280;61036;53.224;6.554;2024-02-21T08:30:35;98677.13;;;9.15;100.00
72896;BME280;61036;53.224;6.554;2024-02-21T08:33:00;98696.88;;;9.32;100.00
72896;BME280;61036;53.224;6.554;2024-02-21T08:35:26;98742.78;;;9.31;100.00
72896;BME280;61036;53.224;6.554;2024-02-21T08:37:51;98797.13;;;9.16;100.00
72896;BME280;61036;53.224;6.554;2024-02-21T08:40:17;98799.03;;;9.24;100.00
72896;BME280;61036;53.224;6.554;2024-02-21T08:42:46;98796.50;;;9.23;100.00
72896;BME280;61036;53.224;6.554;2024-02-21T08:45:12;98802.56;;;9.25;100.00
72896;BME280;61036;53.224;6.554;2024-02-21T08:47:41;98801.84;;;9.41;100.00
72896;BME280;61036;53.224;6.554;2024-02-21T08:50:07;98814.75;;;9.37;100.00
72896;BME280;61036;53.224;6.554;2024-02-21T08:52:34;98827.22;;;9.20;100.00
72896;BME280;61036;53.224;6.554;2024-02-21T08:55:00;98825.94;;;9.24;100.00
72896;BME280;61036;53.224;6.554;2024-02-21T08:57:27;98833.16;;;9.24;100.00
72896;BME280;61036;53.224;6.554;2024-02-21T08:59:52;98841.88;;;9.00;100.00
72896;BME280;61036;53.224;6.554;2024-02-21T09:02:18;98823.72;;;9.02;100.00
72896;BME280;61036;53.224;6.554;2024-02-21T09:04:43;98799.19;;;9.23;100.00
72896;BME280;61036;53.224;6.554;2024-02-21T09:07:10;98797.88;;;9.27;100.00
72896;BME280;61036;53.224;6.554;2024-02-21T09:09:35;98818.22;;;9.29;100.00
72896;BME280;61036;53.224;6.554;2024-02-21T09:12:01;98826.78;;;9.25;100.00
72896;BME280;61036;53.224;6.554;2024-02-21T09:14:32;98840.84;;;9.19;100.00
72896;BME280;61036;53.224;6.554;2024-02-21T09:16:57;98834.97;;;9.23;100.00
72896;BME280;61036;53.224;6.554;2024-02-21T09:19:23;98842.13;;;9.14;100.00
72896;BME280;61036;53.224;6.554;2024-02-21T09:21:48;98842.31;;;9.13;100.00
72896;BME280;61036;53.224;6.554;2024-02-21T09:24:14;98833.00;;;9.25;100.00
72896;BME280;61036;53.224;6.554;2024-02-21T09:26:40;98840.38;;;9.23;100.00
72896;BME280;61036;53.224;6.554;2024-02-21T09:29:05;98852.75;;;9.16;100.00
72896;BME280;61036;53.224;6.554;2024-02-21T09:31:31;98842.28;;;9.31;100.00
72896;BME280;61036;53.224;6.554;2024-02-21T09:33:57;98856.91;;;9.10;100.00
72896;BME280;61036;53.224;6.554;2024-02-21T09:36:22;98845.75;;;9.23;100.00
72896;BME280;61036;53.224;6.554;2024-02-21T09:38:48;98842.06;;;9.24;100.00
72896;BME280;61036;53.224;6.554;2024-02-21T09:41:17;98829.06;;;9.37;100.00
72896;BME280;61036;53.224;6.554;2024-02-21T09:43:45;98852.34;;;9.29;100.00
72896;BME280;61036;53.224;6.554;2024-02-21T09:46:16;98849.88;;;9.35;100.00
72896;BME280;61036;53.224;6.554;2024-02-21T09:49:02;98844.50;;;9.35;100.00
72896;BME280;61036;53.224;6.554;2024-02-21T09:51:30;98855.03;;;9.29;100.00
72896;BME280;61036;53.224;6.554;2024-02-21T09:53:58;98842.56;;;9.46;100.00
72896;BME280;61036;53.224;6.554;2024-02-21T09:56:25;98857.84;;;9.63;100.00
72896;BME280;61036;53.224;6.554;2024-02-21T09:58:50;98897.09;;;9.30;100.00
72896;BME280;61036;53.224;6.554;2024-02-21T10:01:15;98882.31;;;9.34;100.00
72896;BME280;61036;53.224;6.554;2024-02-21T10:03:41;98882.94;;;9.46;100.00
72896;BME280;61036;53.224;6.554;2024-02-21T10:06:09;98893.22;;;9.50;100.00
72896;BME280;61036;53.224;6.554;2024-02-21T10:08:35;98917.59;;;9.31;100.00
72896;BME280;61036;53.224;6.554;2024-02-21T10:11:01;98915.31;;;9.36;100.00
72896;BME280;61036;53.224;6.554;2024-02-21T10:13:29;98922.28;;;9.47;100.00
72896;BME280;61036;53.224;6.554;2024-02-21T10:16:05;98919.19;;;9.59;100.00
72896;BME280;61036;53.224;6.554;2024-02-21T10:18:31;98933.13;;;9.55;100.00
72896;BME280;61036;53.224;6.554;2024-02-21T10:21:04;98947.00;;;9.68;100.00
72896;BME280;61036;53.224;6.554;2024-02-21T10:26:09;98955.78;;;9.52;100.00
72896;BME280;61036;53.224;6.554;2024-02-21T10:28:34;98980.09;;;9.43;100.00
72896;BME280;61036;53.224;6.554;2024-02-21T10:31:00;98985.69;;;9.31;100.00
72896;BME280;61036;53.224;6.554;2024-02-21T10:33:25;98970.41;;;9.50;100.00
72896;BME280;61036;53.224;6.554;2024-02-21T10:35:53;98967.63;;;9.42;100.00
72896;BME280;61036;53.224;6.554;2024-02-21T10:38:19;98967.88;;;9.48;100.00
72896;BME280;61036;53.224;6.554;2024-02-21T10:40:46;98986.38;;;9.33;100.00
72896;BME280;61036;53.224;6.554;2024-02-21T10:43:13;98971.53;;;9.47;100.00
72896;BME280;61036;53.224;6.554;2024-02-21T10:45:41;98965.81;;;9.86;100.00
72896;BME280;61036;53.224;6.554;2024-02-21T10:48:14;98992.75;;;9.68;100.00
72896;BME280;61036;53.224;6.554;2024-02-21T10:50:53;99006.81;;;9.80;100.00
72896;BME280;61036;53.224;6.554;2024-02-21T10:53:44;99023.91;;;9.71;100.00
72896;BME280;61036;53.224;6.554;2024-02-21T10:56:30;99025.31;;;9.75;100.00
72896;BME280;61036;53.224;6.554;2024-02-21T10:59:00;99037.06;;;9.74;100.00
72896;BME280;61036;53.224;6.554;2024-02-21T11:01:26;99037.38;;;9.89;100.00
72896;BME280;61036;53.224;6.554;2024-02-21T11:03:55;99057.84;;;9.99;100.00
72896;BME280;61036;53.224;6.554;2024-02-21T11:06:22;99083.84;;;9.91;100.00
72896;BME280;61036;53.224;6.554;2024-02-21T11:08:59;99081.44;;;10.41;100.00
72896;BME280;61036;53.224;6.554;2024-02-21T11:11:25;99125.16;;;10.17;100.00
72896;BME280;61036;53.224;6.554;2024-02-21T11:13:51;99122.09;;;10.30;100.00
72896;BME280;61036;53.224;6.554;2024-02-21T11:16:22;99136.41;;;10.30;100.00
72896;BME280;61036;53.224;6.554;2024-02-21T11:18:48;99121.28;;;10.38;100.00
72896;BME280;61036;53.224;6.554;2024-02-21T11:21:14;99122.19;;;10.64;100.00
72896;BME280;61036;53.224;6.554;2024-02-21T11:23:39;99189.44;;;10.30;100.00
72896;BME280;61036;53.224;6.554;2024-02-21T11:26:17;99184.16;;;10.38;100.00
72896;BME280;61036;53.224;6.554;2024-02-21T11:28:44;99177.19;;;10.53;100.00
72896;BME280;61036;53.224;6.554;2024-02-21T11:31:13;99186.22;;;10.44;100.00
72896;BME280;61036;53.224;6.554;2024-02-21T11:33:40;99181.91;;;10.34;100.00
72896;BME280;61036;53.224;6.554;2024-02-21T11:36:08;99169.75;;;10.29;100.00
72896;BME280;61036;53.224;6.554;2024-02-21T11:38:33;99146.41;;;10.38;100.00
72896;BME280;61036;53.224;6.554;2024-02-21T11:40:59;99170.31;;;10.05;100.00
72896;BME280;61036;53.224;6.554;2024-02-21T11:43:25;99186.81;;;9.93;100.00
72896;BME280;61036;53.224;6.554;2024-02-21T11:45:58;99156.28;;;10.20;100.00
72896;BME280;61036;53.224;6.554;2024-02-21T11:48:24;99162.00;;;10.17;100.00
72896;BME280;61036;53.224;6.554;2024-02-21T11:50:57;99140.31;;;10.36;100.00
72896;BME280;61036;53.224;6.554;2024-02-21T11:53:23;99166.19;;;10.11;100.00
72896;BME280;61036;53.224;6.554;2024-02-21T11:55:49;99164.75;;;10.07;100.00
72896;BME280;61036;53.224;6.554;2024-02-21T11:58:16;99143.00;;;10.18;100.00
72896;BME280;61036;53.224;6.554;2024-02-21T12:00:41;99128.78;;;10.08;100.00
72896;BME280;61036;53.224;6.554;2024-02-21T12:03:07;99116.59;;;10.04;100.00
72896;BME280;61036;53.224;6.554;2024-02-21T12:05:33;99101.44;;;10.03;100.00
72896;BME280;61036;53.224;6.554;2024-02-21T12:07:59;99091.75;;;9.92;100.00
72896;BME280;61036;53.224;6.554;2024-02-21T12:10:28;99056.50;;;10.21;100.00
72896;BME280;61036;53.224;6.554;2024-02-21T12:12:54;99057.84;;;10.25;100.00
72896;BME280;61036;53.224;6.554;2024-02-21T12:15:23;99064.06;;;10.00;100.00
72896;BME280;61036;53.224;6.554;2024-02-21T12:17:49;99056.69;;;10.02;100.00
72896;BME280;61036;53.224;6.554;2024-02-21T12:20:17;99045.03;;;10.01;100.00
72896;BME280;61036;53.224;6.554;2024-02-21T12:22:42;99040.88;;;10.07;100.00
72896;BME280;61036;53.224;6.554;2024-02-21T12:25:18;99020.81;;;10.01;100.00
72896;BME280;61036;53.224;6.554;2024-02-21T12:27:48;99005.09;;;10.15;100.00
72896;BME280;61036;53.224;6.554;2024-02-21T12:30:15;99032.91;;;9.79;100.00
72896;BME280;61036;53.224;6.554;2024-02-21T12:32:41;99008.53;;;9.81;100.00
72896;BME280;61036;53.224;6.554;2024-02-21T12:35:07;98986.59;;;10.20;100.00
72896;BME280;61036;53.224;6.554;2024-02-21T12:37:33;99017.38;;;9.73;100.00
72896;BME280;61036;53.224;6.554;2024-02-21T12:39:59;98967.84;;;9.84;100.00
72896;BME280;61036;53.224;6.554;2024-02-21T12:42:25;98955.09;;;10.12;100.00
72896;BME280;61036;53.224;6.554;2024-02-21T12:44:51;98970.03;;;10.06;100.00
72896;BME280;61036;53.224;6.554;2024-02-21T12:47:18;99007.91;;;9.87;100.00
72896;BME280;61036;53.224;6.554;2024-02-21T12:49:45;98976.69;;;10.20;100.00
72896;BME280;61036;53.224;6.554;2024-02-21T12:52:11;98982.59;;;10.24;100.00
72896;BME280;61036;53.224;6.554;2024-02-21T12:54:38;98994.94;;;10.08;100.00
72896;BME280;61036;53.224;6.554;2024-02-21T12:57:04;98990.66;;;9.98;100.00
72896;BME280;61036;53.224;6.554;2024-02-21T12:59:29;98982.75;;;9.96;100.00